Time;durP1;ratioP1;P1;durP2;ratioP2;P2;SDS_P1;SDS_P2;PMS_P1;PMS_P2;Temp;Humidity;BMP_temperature;BMP_pressure;BME280_temperature;BME280_humidity;BME280_pressure;Samples;Min_cycle;Max_cycle;Signal;HPM_P1;HPM_P2
2023/12/28 00:02:56;;;;;;;0.60;0.60;;;19.70;47.50;;;;;;10468751;28;20051;-45
2023/12/28 00:07:59;;;;;;;0.60;0.60;;;19.60;47.50;;;;;;10470373;28;20041;-48
2023/12/28 00:13:00;;;;;;;0.80;0.57;;;19.50;47.60;;;;;;10468688;28;20054;-44
2023/12/28 00:18:02;;;;;;;0.98;0.65;;;19.50;47.50;;;;;;10474257;28;20132;-46
2023/12/28 00:23:06;;;;;;;0.60;0.60;;;19.50;47.50;;;;;;10468829;28;20045;-46
2023/12/28 00:28:07;;;;;;;0.80;0.50;;;19.50;47.50;;;;;;10469947;28;20064;-44
2023/12/28 00:33:09;;;;;;;0.93;0.68;;;19.60;47.30;;;;;;10477105;28;20075;-44
2023/12/28 00:38:12;;;;;;;0.82;0.68;;;19.50;47.40;;;;;;10471860;28;20143;-46
2023/12/28 00:43:14;;;;;;;0.70;0.70;;;19.50;47.50;;;;;;10466669;28;20147;-45
2023/12/28 00:48:15;;;;;;;0.63;0.60;;;19.50;47.40;;;;;;10467718;28;20140;-50
2023/12/28 00:53:19;;;;;;;1.55;0.73;;;19.40;47.40;;;;;;10464373;28;20101;-44
2023/12/28 00:58:21;;;;;;;0.60;0.60;;;19.30;47.50;;;;;;10469703;28;20055;-44
2023/12/28 01:03:23;;;;;;;0.80;0.60;;;19.20;47.60;;;;;;10472295;28;20135;-45
2023/12/28 01:08:26;;;;;;;0.77;0.60;;;19.30;47.50;;;;;;10470493;28;20079;-48
2023/12/28 01:13:31;;;;;;;0.70;0.60;;;19.20;47.50;;;;;;10467268;28;20048;-45
2023/12/28 01:18:32;;;;;;;0.68;0.68;;;19.20;47.50;;;;;;10465352;28;20410;-45
2023/12/28 01:23:36;;;;;;;0.95;0.57;;;19.20;47.60;;;;;;10475107;28;20135;-44
2023/12/28 01:28:37;;;;;;;1.00;0.60;;;19.20;47.50;;;;;;10472002;28;20036;-50
2023/12/28 01:33:39;;;;;;;0.80;0.70;;;19.10;47.70;;;;;;10461762;28;20160;-44
2023/12/28 01:38:42;;;;;;;0.60;0.60;;;19.20;47.60;;;;;;10463740;28;20144;-45
2023/12/28 01:43:43;;;;;;;0.98;0.80;;;19.10;47.70;;;;;;10469126;28;20131;-44
2023/12/28 01:48:46;;;;;;;0.60;0.50;;;19.00;47.80;;;;;;10481942;28;20072;-44
2023/12/28 01:53:49;;;;;;;0.50;0.50;;;19.00;47.90;;;;;;10476286;28;20123;-44
2023/12/28 01:58:52;;;;;;;0.85;0.70;;;18.90;47.90;;;;;;10478105;28;20047;-45
2023/12/28 02:03:53;;;;;;;0.98;0.80;;;18.90;47.90;;;;;;10478014;28;20049;-45
2023/12/28 02:08:56;;;;;;;1.30;0.70;;;18.90;47.80;;;;;;10472038;28;20131;-44
2023/12/28 02:13:58;;;;;;;0.98;0.70;;;19.00;47.70;;;;;;10479727;28;20766;-44
2023/12/28 02:19:01;;;;;;;1.15;0.70;;;18.90;47.70;;;;;;10474595;28;20156;-47
2023/12/28 02:24:04;;;;;;;0.90;0.65;;;18.90;47.80;;;;;;10472223;28;20127;-44
2023/12/28 02:29:08;;;;;;;0.60;0.60;;;18.80;47.80;;;;;;10477300;28;20132;-47
2023/12/28 02:34:13;;;;;;;1.10;0.70;;;18.80;47.60;;;;;;10480764;28;20058;-44
2023/12/28 02:39:15;;;;;;;0.98;0.70;;;18.80;47.70;;;;;;10480062;28;20076;-46
2023/12/28 02:44:19;;;;;;;0.75;0.70;;;18.80;47.70;;;;;;10476137;28;20144;-45
2023/12/28 02:49:20;;;;;;;0.73;0.70;;;18.70;47.90;;;;;;10474521;28;20048;-44
2023/12/28 02:54:22;;;;;;;0.90;0.60;;;18.70;47.90;;;;;;10474533;28;20159;-45
2023/12/28 02:59:25;;;;;;;0.70;0.60;;;18.70;48.00;;;;;;10472831;28;20176;-45
2023/12/28 03:04:26;;;;;;;0.80;0.65;;;18.60;48.00;;;;;;10474640;28;20141;-45
2023/12/28 03:09:28;;;;;;;1.13;0.90;;;18.70;47.80;;;;;;10472563;28;20480;-45
2023/12/28 03:14:31;;;;;;;0.80;0.70;;;18.50;48.20;;;;;;10474791;28;20162;-44
2023/12/28 03:19:33;;;;;;;0.80;0.70;;;18.40;48.20;;;;;;10478760;28;20157;-45
2023/12/28 03:24:34;;;;;;;1.05;0.70;;;18.50;48.10;;;;;;10472975;28;20080;-46
2023/12/28 03:29:37;;;;;;;0.63;0.60;;;18.50;48.10;;;;;;10468701;28;20048;-45
2023/12/28 03:34:39;;;;;;;0.60;0.60;;;18.40;48.20;;;;;;10467153;28;20511;-45
2023/12/28 03:39:40;;;;;;;1.08;0.70;;;18.40;48.10;;;;;;10471536;28;20076;-46
2023/12/28 03:44:43;;;;;;;0.93;0.70;;;18.40;48.10;;;;;;10480973;28;20120;-44
2023/12/28 03:49:45;;;;;;;0.70;0.70;;;18.40;48.20;;;;;;10473008;28;20078;-45
2023/12/28 03:54:47;;;;;;;0.90;0.70;;;18.40;48.10;;;;;;10472833;28;20411;-45
2023/12/28 03:59:50;;;;;;;1.05;0.80;;;18.30;48.30;;;;;;10475337;28;20160;-46
2023/12/28 04:04:51;;;;;;;0.70;0.55;;;18.40;48.10;;;;;;10471083;28;20139;-45
2023/12/28 04:09:53;;;;;;;0.80;0.77;;;18.80;46.90;;;;;;10470027;28;20422;-48
2023/12/28 04:14:56;;;;;;;0.80;0.60;;;19.10;46.20;;;;;;10466983;28;20067;-48
2023/12/28 04:19:57;;;;;;;0.70;0.60;;;19.00;46.90;;;;;;10472480;28;20044;-45
2023/12/28 04:24:59;;;;;;;1.00;0.80;;;18.70;48.20;;;;;;10470366;28;20123;-47
2023/12/28 04:30:02;;;;;;;0.60;0.60;;;18.70;48.40;;;;;;10472182;28;20199;-44
2023/12/28 04:35:04;;;;;;;0.60;0.60;;;18.90;48.30;;;;;;10463670;28;20210;-50
2023/12/28 04:40:06;;;;;;;0.70;0.60;;;19.10;48.10;;;;;;10460020;28;20068;-45
2023/12/28 04:45:10;;;;;;;0.68;0.60;;;19.20;48.00;;;;;;10467195;28;20136;-47
2023/12/28 04:50:12;;;;;;;0.55;0.55;;;19.40;48.00;;;;;;10472068;28;20053;-45
2023/12/28 04:55:14;;;;;;;0.68;0.60;;;19.50;47.90;;;;;;10476767;28;20135;-45
2023/12/28 05:00:17;;;;;;;0.50;0.50;;;19.60;47.90;;;;;;10470251;28;20143;-44
2023/12/28 05:05:19;;;;;;;1.20;0.70;;;19.80;47.60;;;;;;10463429;28;20049;-45
2023/12/28 05:10:21;;;;;;;0.55;0.52;;;19.80;47.60;;;;;;10467333;28;20041;-46
2023/12/28 05:15:24;;;;;;;0.80;0.55;;;19.80;47.60;;;;;;10473337;28;20057;-49
2023/12/28 05:20:25;;;;;;;0.82;0.60;;;19.90;47.70;;;;;;10468676;28;20087;-45
2023/12/28 05:25:27;;;;;;;1.17;0.70;;;19.90;47.70;;;;;;10472946;28;20460;-45
2023/12/28 05:30:30;;;;;;;1.27;0.70;;;19.90;47.80;;;;;;10474796;28;20135;-48
2023/12/28 05:35:31;;;;;;;0.50;0.50;;;19.90;48.00;;;;;;10482186;28;20143;-44
2023/12/28 05:40:33;;;;;;;0.60;0.60;;;19.90;48.00;;;;;;10481693;28;20135;-49
2023/12/28 05:45:36;;;;;;;0.70;0.60;;;19.90;48.20;;;;;;10479315;28;20219;-49
2023/12/28 05:50:37;;;;;;;0.60;0.60;;;20.00;48.20;;;;;;10469609;28;20075;-47
2023/12/28 05:55:39;;;;;;;0.45;0.45;;;20.10;48.00;;;;;;10472506;28;20553;-48
2023/12/28 06:00:42;;;;;;;0.60;0.55;;;20.00;48.20;;;;;;10479086;28;20140;-45
2023/12/28 06:05:44;;;;;;;0.93;0.63;;;20.20;48.10;;;;;;10479784;28;20056;-46
2023/12/28 06:10:45;;;;;;;0.60;0.60;;;20.20;48.10;;;;;;10477138;28;20053;-47
2023/12/28 06:15:48;;;;;;;0.52;0.50;;;20.30;47.60;;;;;;10473719;28;20139;-44
2023/12/28 06:20:50;;;;;;;0.77;0.60;;;20.30;47.70;;;;;;10470244;28;20503;-46
2023/12/28 06:25:52;;;;;;;0.60;0.45;;;20.40;47.40;;;;;;10475338;28;20135;-46
2023/12/28 06:30:54;;;;;;;0.85;0.68;;;20.40;47.30;;;;;;10474921;28;20127;-45
2023/12/28 06:35:57;;;;;;;0.90;0.65;;;20.40;47.10;;;;;;10469946;28;20051;-45
2023/12/28 06:40:59;;;;;;;1.65;0.50;;;20.50;46.90;;;;;;10470893;28;20051;-46
2023/12/28 06:46:02;;;;;;;0.60;0.60;;;20.60;46.70;;;;;;10472524;28;20128;-46
2023/12/28 06:51:04;;;;;;;0.65;0.63;;;20.60;46.70;;;;;;10479517;28;20425;-48
2023/12/28 06:56:06;;;;;;;0.75;0.50;;;20.70;46.40;;;;;;10467103;28;20558;-48
2023/12/28 07:01:09;;;;;;;0.77;0.70;;;20.60;46.40;;;;;;10469203;28;20136;-52
2023/12/28 07:06:11;;;;;;;0.90;0.65;;;20.70;46.30;;;;;;10468167;28;20135;-45
2023/12/28 07:11:12;;;;;;;0.88;0.63;;;20.70;46.30;;;;;;10475781;28;20147;-47
2023/12/28 07:16:16;;;;;;;0.57;0.57;;;20.70;46.10;;;;;;10480594;28;20136;-45
2023/12/28 07:21:17;;;;;;;0.80;0.70;;;20.70;45.90;;;;;;10468391;28;20056;-47
2023/12/28 07:26:19;;;;;;;1.02;0.70;;;20.60;46.20;;;;;;10467806;28;20048;-46
2023/12/28 07:31:25;;;;;;;0.90;0.60;;;20.60;46.40;;;;;;10470488;28;20579;-45
2023/12/28 07:36:26;;;;;;;1.70;0.60;;;20.50;46.40;;;;;;10470707;28;20574;-45
2023/12/28 07:41:28;;;;;;;1.08;0.70;;;20.30;47.30;;;;;;10480079;28;20073;-45
2023/12/28 07:46:31;;;;;;;1.00;0.63;;;20.10;47.00;;;;;;10469927;28;20127;-50
2023/12/28 07:51:33;;;;;;;1.08;0.90;;;19.90;47.50;;;;;;10468932;28;20431;-45
2023/12/28 07:56:35;;;;;;;0.55;0.55;;;19.60;48.00;;;;;;10473669;28;20048;-45
2023/12/28 08:01:38;;;;;;;0.60;0.60;;;19.60;47.80;;;;;;10472135;28;20499;-45
2023/12/28 08:06:39;;;;;;;0.93;0.60;;;19.50;48.00;;;;;;10467701;28;20144;-44
2023/12/28 08:11:41;;;;;;;1.42;0.77;;;19.70;47.80;;;;;;10462345;28;20131;-45
2023/12/28 08:16:44;;;;;;;1.08;0.60;;;19.80;47.40;;;;;;10472152;28;20041;-49
2023/12/28 08:21:49;;;;;;;1.00;0.80;;;19.80;47.00;;;;;;10477194;28;20131;-47
2023/12/28 08:26:50;;;;;;;0.93;0.60;;;20.00;46.50;;;;;;10471023;28;20132;-47
2023/12/28 08:31:55;;;;;;;0.80;0.60;;;20.10;46.20;;;;;;10468006;28;20052;-45
2023/12/28 08:36:56;;;;;;;0.90;0.60;;;20.10;46.20;;;;;;10463825;28;20128;-47
2023/12/28 08:41:58;;;;;;;0.68;0.50;;;20.00;46.20;;;;;;10463281;28;20483;-44
2023/12/28 08:47:02;;;;;;;0.82;0.70;;;20.00;46.30;;;;;;10472505;28;20140;-44
2023/12/28 08:52:03;;;;;;;1.02;0.70;;;20.00;46.50;;;;;;10471694;28;20057;-45
2023/12/28 08:57:05;;;;;;;1.17;0.60;;;20.10;46.30;;;;;;10470190;28;20565;-47
2023/12/28 09:02:08;;;;;;;1.67;0.80;;;20.20;46.00;;;;;;10470380;28;20143;-45
2023/12/28 09:07:10;;;;;;;1.00;0.70;;;20.20;45.90;;;;;;10471359;28;20098;-45
2023/12/28 09:12:12;;;;;;;1.20;0.70;;;20.20;46.00;;;;;;10477145;28;20143;-50
2023/12/28 09:17:15;;;;;;;0.82;0.70;;;20.10;46.10;;;;;;10458868;28;20102;-44
2023/12/28 09:22:16;;;;;;;1.15;0.65;;;20.20;45.90;;;;;;10469201;28;20135;-46
2023/12/28 09:27:18;;;;;;;0.73;0.63;;;20.30;45.60;;;;;;10464833;28;20143;-45
2023/12/28 09:32:21;;;;;;;0.80;0.68;;;20.30;45.40;;;;;;10473109;28;20123;-45
2023/12/28 09:37:23;;;;;;;0.95;0.70;;;20.30;45.40;;;;;;10479218;28;20558;-48
2023/12/28 09:42:26;;;;;;;1.10;0.60;;;20.40;45.50;;;;;;10466976;28;20049;-45
2023/12/28 09:47:29;;;;;;;0.90;0.70;;;20.30;45.60;;;;;;10462985;28;20052;-45
2023/12/28 09:52:31;;;;;;;1.30;0.85;;;20.20;45.80;;;;;;10462249;28;20471;-45
2023/12/28 09:57:32;;;;;;;1.05;0.80;;;20.10;46.20;;;;;;10471448;28;20045;-46
2023/12/28 10:02:35;;;;;;;1.55;0.65;;;19.90;46.50;;;;;;10475879;28;20563;-49
2023/12/28 10:07:42;;;;;;;1.15;0.70;;;19.80;47.00;;;;;;10466903;28;20124;-45
2023/12/28 10:12:44;;;;;;;0.82;0.60;;;19.50;47.60;;;;;;10476058;28;20139;-44
2023/12/28 10:17:48;;;;;;;1.45;0.80;;;19.60;47.50;;;;;;10480899;28;20414;-44
2023/12/28 10:22:49;;;;;;;1.27;0.70;;;19.30;48.10;;;;;;10474706;28;20491;-47
2023/12/28 10:27:53;;;;;;;1.55;0.82;;;19.20;48.40;;;;;;10475813;28;20041;-45
2023/12/28 10:32:56;;;;;;;0.88;0.70;;;19.30;48.20;;;;;;10467559;28;20059;-45
2023/12/28 10:37:57;;;;;;;1.23;0.63;;;19.20;48.40;;;;;;10472661;28;20127;-45
2023/12/28 10:43:01;;;;;;;1.88;0.82;;;19.30;48.40;;;;;;10478428;28;20123;-45
2023/12/28 10:48:07;;;;;;;0.93;0.60;;;19.40;47.90;;;;;;10478632;28;20070;-45
2023/12/28 10:53:31;;;;;;;0.68;0.60;;;19.40;48.00;;;;;;10474856;28;20057;-45
2023/12/28 10:58:35;;;;;;;1.40;0.75;;;19.40;48.20;;;;;;10469641;28;20139;-47
2023/12/28 11:03:38;;;;;;;1.70;0.70;;;19.30;48.20;;;;;;10472876;28;20144;-45
2023/12/28 11:08:40;;;;;;;1.77;0.90;;;19.30;48.30;;;;;;10480962;28;20045;-45
2023/12/28 11:13:41;;;;;;;2.25;1.00;;;19.30;48.20;;;;;;10468252;28;20053;-46
2023/12/28 11:18:44;;;;;;;1.75;0.70;;;19.40;47.90;;;;;;10469436;28;20599;-45
2023/12/28 11:23:47;;;;;;;1.52;0.70;;;19.30;48.10;;;;;;10472447;28;20152;-47
2023/12/28 11:28:49;;;;;;;1.10;0.70;;;19.40;48.00;;;;;;10474565;28;20071;-45
2023/12/28 11:33:53;;;;;;;1.25;0.80;;;19.30;48.10;;;;;;10479465;28;20576;-45
2023/12/28 11:38:55;;;;;;;1.67;1.10;;;19.30;47.90;;;;;;10473463;28;20049;-45
2023/12/28 11:43:58;;;;;;;2.92;0.70;;;19.40;47.80;;;;;;10473590;28;20041;-45
2023/12/28 11:49:07;;;;;;;1.85;0.80;;;19.50;47.60;;;;;;10470927;28;20127;-45
2023/12/28 11:54:09;;;;;;;1.58;0.80;;;19.50;47.60;;;;;;10476385;28;20049;-45
2023/12/28 11:59:11;;;;;;;2.25;0.70;;;19.40;47.80;;;;;;10474588;28;20135;-45
2023/12/28 12:04:14;;;;;;;1.48;0.82;;;19.50;47.60;;;;;;10467721;28;20049;-45
2023/12/28 12:09:22;;;;;;;1.67;0.95;;;19.40;47.80;;;;;;10469230;28;20048;-46
2023/12/28 12:14:24;;;;;;;1.80;0.80;;;19.30;47.90;;;;;;10475710;28;20070;-45
2023/12/28 12:19:29;;;;;;;2.58;0.80;;;19.30;47.80;;;;;;10476534;28;20131;-45
2023/12/28 12:24:31;;;;;;;2.00;0.93;;;19.50;47.30;;;;;;10473934;28;20083;-47
2023/12/28 12:29:32;;;;;;;3.00;1.02;;;19.60;47.30;;;;;;10469711;28;20124;-45
2023/12/28 12:34:35;;;;;;;2.45;1.02;;;19.60;47.30;;;;;;10465519;28;20061;-45
2023/12/28 12:39:37;;;;;;;2.40;1.00;;;19.60;47.10;;;;;;10472544;28;20052;-48
2023/12/28 12:44:39;;;;;;;2.72;1.02;;;19.70;47.00;;;;;;10474863;28;20123;-46
2023/12/28 12:49:43;;;;;;;2.35;1.15;;;19.70;47.00;;;;;;10476657;28;20033;-46
2023/12/28 12:54:44;;;;;;;1.73;0.80;;;19.60;47.10;;;;;;10473457;28;20045;-45
2023/12/28 12:59:46;;;;;;;1.10;0.90;;;19.70;47.20;;;;;;10475157;28;20132;-45
2023/12/28 13:04:49;;;;;;;2.47;0.82;;;19.70;47.00;;;;;;10476004;28;21366;-45
2023/12/28 13:09:50;;;;;;;2.80;1.10;;;19.80;47.00;;;;;;10466783;28;20395;-45
2023/12/28 13:14:52;;;;;;;3.40;1.30;;;19.70;47.10;;;;;;10462577;28;20132;-46
2023/12/28 13:19:55;;;;;;;2.55;1.00;;;19.60;47.10;;;;;;10468556;28;20131;-45
2023/12/28 13:24:57;;;;;;;1.90;1.10;;;19.70;46.80;;;;;;10475167;28;20179;-45
2023/12/28 13:29:58;;;;;;;3.28;1.30;;;19.00;49.00;;;;;;10475763;28;20059;-45
2023/12/28 13:35:01;;;;;;;1.63;0.98;;;18.90;49.60;;;;;;10473868;28;20126;-47
2023/12/28 13:40:04;;;;;;;1.73;0.90;;;19.00;49.50;;;;;;10469721;28;20057;-45
2023/12/28 13:45:07;;;;;;;3.40;1.00;;;19.00;49.60;;;;;;10474357;28;20053;-46
2023/12/28 13:50:10;;;;;;;3.33;1.08;;;18.80;50.00;;;;;;10479553;28;20128;-47
2023/12/28 13:55:12;;;;;;;2.63;1.00;;;18.80;50.20;;;;;;10478475;28;20080;-46
2023/12/28 14:00:15;;;;;;;3.10;1.20;;;18.80;50.10;;;;;;10474793;28;20067;-47
2023/12/28 14:05:19;;;;;;;2.20;1.02;;;18.90;49.80;;;;;;10477652;28;20562;-45
2023/12/28 14:10:20;;;;;;;1.77;0.88;;;18.80;50.00;;;;;;10470127;28;20102;-46
2023/12/28 14:15:22;;;;;;;2.63;1.05;;;19.10;49.50;;;;;;10478548;28;20076;-45
2023/12/28 14:20:27;;;;;;;2.05;0.93;;;19.40;48.90;;;;;;10476608;28;20048;-46
2023/12/28 14:25:29;;;;;;;2.60;1.10;;;19.50;49.00;;;;;;10470728;28;20076;-45
2023/12/28 14:30:31;;;;;;;1.95;0.90;;;19.50;49.50;;;;;;10467524;28;20132;-44
2023/12/28 14:35:35;;;;;;;2.40;0.98;;;19.40;49.70;;;;;;10478038;28;20132;-47
2023/12/28 14:40:37;;;;;;;2.33;1.08;;;19.40;49.70;;;;;;10485563;28;20135;-49
2023/12/28 14:45:39;;;;;;;2.22;0.90;;;19.60;49.70;;;;;;10469466;28;20486;-51
2023/12/28 14:50:42;;;;;;;2.10;0.88;;;19.60;49.60;;;;;;10466403;28;20136;-48
2023/12/28 14:55:43;;;;;;;2.17;0.90;;;19.80;49.30;;;;;;10470074;28;20160;-51
2023/12/28 15:00:45;;;;;;;2.05;1.10;;;19.80;49.50;;;;;;10473574;28;20139;-48
2023/12/28 15:05:48;;;;;;;3.00;0.82;;;19.80;49.30;;;;;;10480440;28;20086;-47
2023/12/28 15:10:50;;;;;;;1.55;0.90;;;19.90;49.20;;;;;;10468338;28;20602;-46
2023/12/28 15:15:52;;;;;;;2.20;0.93;;;19.90;49.30;;;;;;10473334;28;20139;-49
2023/12/28 15:20:56;;;;;;;2.42;1.10;;;19.90;49.20;;;;;;10477056;28;20167;-47
2023/12/28 15:25:58;;;;;;;1.98;1.02;;;20.00;49.10;;;;;;10469237;28;20079;-49
2023/12/28 15:30:59;;;;;;;3.28;1.10;;;20.00;49.00;;;;;;10467735;28;20131;-51
2023/12/28 15:36:02;;;;;;;1.95;1.05;;;20.00;49.00;;;;;;10464653;28;20485;-49
2023/12/28 15:41:04;;;;;;;1.70;0.82;;;20.10;48.90;;;;;;10471092;28;20127;-47
2023/12/28 15:46:06;;;;;;;2.38;1.00;;;20.20;48.70;;;;;;10479694;28;20128;-50
2023/12/28 15:51:10;;;;;;;2.13;1.00;;;20.20;48.80;;;;;;10474268;28;20048;-45
2023/12/28 15:56:11;;;;;;;2.63;1.00;;;20.10;48.80;;;;;;10470027;28;20076;-45
2023/12/28 16:01:13;;;;;;;3.03;1.10;;;20.20;48.90;;;;;;10469380;28;20140;-50
2023/12/28 16:06:17;;;;;;;2.25;0.90;;;20.30;48.60;;;;;;10464787;28;20135;-50
2023/12/28 16:11:18;;;;;;;2.20;0.80;;;20.30;48.50;;;;;;10474862;28;20588;-48
2023/12/28 16:16:21;;;;;;;2.10;0.90;;;20.30;48.50;;;;;;10467269;28;20073;-45
2023/12/28 16:21:24;;;;;;;1.67;0.90;;;20.40;48.40;;;;;;10466500;28;20131;-45
2023/12/28 16:26:26;;;;;;;2.70;1.10;;;20.50;48.40;;;;;;10470976;28;20139;-47
2023/12/28 16:31:27;;;;;;;2.35;1.00;;;20.40;48.50;;;;;;10472496;28;20140;-49
2023/12/28 16:36:30;;;;;;;1.98;1.20;;;20.40;48.60;;;;;;10484607;28;20120;-49
2023/12/28 16:41:32;;;;;;;2.50;1.00;;;20.60;48.40;;;;;;10462615;28;20132;-50
2023/12/28 16:46:34;;;;;;;2.80;0.80;;;20.70;48.00;;;;;;10466060;28;20076;-48
2023/12/28 16:51:37;;;;;;;2.22;1.02;;;20.60;48.20;;;;;;10464752;28;20052;-44
2023/12/28 16:56:39;;;;;;;1.75;0.80;;;20.60;48.10;;;;;;10472582;28;20143;-48
2023/12/28 17:01:40;;;;;;;1.95;1.00;;;20.60;48.20;;;;;;10475741;28;20036;-46
2023/12/28 17:06:43;;;;;;;1.25;0.80;;;20.70;48.20;;;;;;10462713;28;20060;-50
2023/12/28 17:11:46;;;;;;;1.67;0.82;;;20.70;48.10;;;;;;10464210;28;20048;-52
2023/12/28 17:16:49;;;;;;;1.77;0.93;;;20.70;48.30;;;;;;10469802;28;20045;-46
2023/12/28 17:21:52;;;;;;;1.70;0.80;;;20.70;48.20;;;;;;10479362;28;20052;-46
2023/12/28 17:26:55;;;;;;;1.85;1.00;;;20.80;48.00;;;;;;10479208;28;20080;-49
2023/12/28 17:31:57;;;;;;;1.88;1.00;;;20.80;48.10;;;;;;10471380;28;20052;-46
2023/12/28 17:37:00;;;;;;;2.00;0.95;;;20.90;47.90;;;;;;10476744;28;20102;-49
2023/12/28 17:42:02;;;;;;;2.47;1.00;;;20.80;48.10;;;;;;10481349;28;20563;-46
2023/12/28 17:47:07;;;;;;;2.13;1.00;;;20.90;47.90;;;;;;10475020;28;20136;-48
2023/12/28 17:52:10;;;;;;;1.52;0.90;;;20.90;48.00;;;;;;10475575;28;20102;-45
2023/12/28 17:57:12;;;;;;;2.28;1.10;;;20.90;48.00;;;;;;10470987;28;20413;-46
2023/12/28 18:02:13;;;;;;;1.88;0.90;;;20.90;48.00;;;;;;10479531;28;20083;-46
2023/12/28 18:07:16;;;;;;;2.10;0.90;;;21.00;47.90;;;;;;10483567;28;20127;-44
2023/12/28 18:12:18;;;;;;;2.00;1.05;;;21.00;47.80;;;;;;10474882;28;20831;-45
2023/12/28 18:17:20;;;;;;;1.25;0.80;;;21.00;47.80;;;;;;10470552;28;20135;-45
2023/12/28 18:22:23;;;;;;;1.40;0.80;;;21.10;47.80;;;;;;10469845;28;20135;-52
2023/12/28 18:27:24;;;;;;;2.80;1.00;;;21.10;47.80;;;;;;10476827;28;20136;-50
2023/12/28 18:32:26;;;;;;;2.22;1.00;;;21.00;47.80;;;;;;10478286;28;20139;-45
2023/12/28 18:37:29;;;;;;;1.48;0.82;;;21.20;47.70;;;;;;10475775;28;20135;-46
2023/12/28 18:42:30;;;;;;;1.80;0.90;;;21.10;47.80;;;;;;10473235;28;20207;-45
2023/12/28 18:47:32;;;;;;;1.80;0.80;;;21.10;47.70;;;;;;10471772;28;20089;-45
2023/12/28 18:52:35;;;;;;;1.23;0.70;;;21.20;47.60;;;;;;10471621;28;20131;-47
2023/12/28 18:57:39;;;;;;;1.98;0.90;;;21.30;47.40;;;;;;10470334;28;20103;-45
2023/12/28 19:02:41;;;;;;;2.90;1.27;;;21.30;47.50;;;;;;10472543;28;20566;-48
2023/12/28 19:07:44;;;;;;;2.30;0.95;;;21.20;47.50;;;;;;10473295;28;20135;-45
2023/12/28 19:12:47;;;;;;;2.50;1.08;;;21.20;47.70;;;;;;10474607;28;20047;-45
2023/12/28 19:17:49;;;;;;;2.45;1.10;;;21.10;47.50;;;;;;10484018;28;20052;-48
2023/12/28 19:22:52;;;;;;;1.50;1.00;;;21.10;47.70;;;;;;10477240;28;20469;-45
2023/12/28 19:27:53;;;;;;;1.75;0.80;;;21.20;47.30;;;;;;10466137;28;20147;-46
2023/12/28 19:32:55;;;;;;;1.88;0.75;;;21.20;47.10;;;;;;10465700;28;20051;-45
2023/12/28 19:37:58;;;;;;;1.33;0.80;;;21.30;47.20;;;;;;10471375;28;20082;-45
2023/12/28 19:42:59;;;;;;;1.73;0.90;;;21.20;47.00;;;;;;10481975;28;20127;-46
2023/12/28 19:48:01;;;;;;;2.63;0.90;;;21.20;47.10;;;;;;10477437;28;20585;-44
2023/12/28 19:53:06;;;;;;;1.80;0.80;;;21.00;47.10;;;;;;10467953;28;20090;-45
2023/12/28 19:58:08;;;;;;;2.70;0.90;;;21.20;46.80;;;;;;10476743;28;20064;-45
2023/12/28 20:03:09;;;;;;;2.50;0.93;;;20.90;47.40;;;;;;10474196;28;20048;-46
2023/12/28 20:08:12;;;;;;;2.45;1.00;;;20.80;47.80;;;;;;10473038;28;20110;-47
2023/12/28 20:13:14;;;;;;;1.30;0.82;;;20.80;47.60;;;;;;10467261;28;20131;-45
2023/12/28 20:18:15;;;;;;;1.25;1.00;;;20.70;47.60;;;;;;10467769;28;20131;-46
2023/12/28 20:23:18;;;;;;;2.03;0.80;;;20.60;47.90;;;;;;10467598;28;20495;-45
2023/12/28 20:28:20;;;;;;;1.50;0.80;;;20.50;48.10;;;;;;10474370;28;20161;-48
2023/12/28 20:33:22;;;;;;;1.52;0.80;;;20.40;48.10;;;;;;10472674;28;20170;-48
2023/12/28 20:38:25;;;;;;;2.17;0.93;;;20.60;47.80;;;;;;10468621;28;20053;-46
2023/12/28 20:43:27;;;;;;;1.10;0.80;;;20.50;48.00;;;;;;10466054;28;20076;-49
2023/12/28 20:48:28;;;;;;;1.88;0.77;;;20.30;48.30;;;;;;10470334;28;20566;-52
2023/12/28 20:53:31;;;;;;;1.23;0.70;;;20.30;48.40;;;;;;10465991;28;20462;-45
2023/12/28 20:58:33;;;;;;;1.63;0.70;;;20.50;47.80;;;;;;10474208;28;20143;-48
2023/12/28 21:03:34;;;;;;;1.90;0.75;;;20.50;47.90;;;;;;10466270;28;20132;-45
2023/12/28 21:08:37;;;;;;;1.55;0.98;;;20.50;47.80;;;;;;10468057;28;20136;-46
2023/12/28 21:13:39;;;;;;;1.27;0.80;;;20.50;48.00;;;;;;10475630;28;20131;-45
2023/12/28 21:18:41;;;;;;;2.92;1.00;;;20.50;48.10;;;;;;10474220;28;20040;-45
2023/12/28 21:23:44;;;;;;;1.95;0.85;;;20.50;47.90;;;;;;10466473;28;20041;-45
2023/12/28 21:28:46;;;;;;;1.67;0.80;;;20.60;47.60;;;;;;10460823;28;20075;-45
2023/12/28 21:33:47;;;;;;;1.70;0.90;;;21.00;46.70;;;;;;10465946;28;20069;-45
2023/12/28 21:38:50;;;;;;;2.45;0.80;;;21.10;46.40;;;;;;10477702;28;20147;-47
2023/12/28 21:43:52;;;;;;;0.90;0.70;;;21.00;46.90;;;;;;10468629;28;20494;-45
2023/12/28 21:48:54;;;;;;;1.50;0.80;;;21.10;46.20;;;;;;10463267;28;20167;-46
2023/12/28 21:53:57;;;;;;;1.58;0.90;;;21.00;46.40;;;;;;10469700;28;20132;-45
2023/12/28 21:58:59;;;;;;;1.05;0.80;;;21.00;46.20;;;;;;10469766;28;20455;-45
2023/12/28 22:04:00;;;;;;;2.80;0.82;;;21.00;46.20;;;;;;10479642;28;20077;-44
2023/12/28 22:09:04;;;;;;;1.58;0.82;;;20.60;47.10;;;;;;10470775;28;20131;-48
2023/12/28 22:14:05;;;;;;;1.63;0.80;;;20.50;47.40;;;;;;10475047;28;20041;-44
2023/12/28 22:19:07;;;;;;;2.00;0.77;;;20.20;48.00;;;;;;10470650;28;20139;-47
2023/12/28 22:24:10;;;;;;;0.70;0.65;;;20.00;48.30;;;;;;10479656;28;20064;-47
2023/12/28 22:29:12;;;;;;;1.55;0.85;;;20.00;48.40;;;;;;10484228;28;20049;-47
2023/12/28 22:34:14;;;;;;;2.22;0.80;;;20.00;48.50;;;;;;10480654;28;20052;-45
2023/12/28 22:39:16;;;;;;;1.20;0.60;;;20.00;48.40;;;;;;10479356;28;20426;-45
2023/12/28 22:44:18;;;;;;;1.48;0.88;;;20.00;48.40;;;;;;10476298;28;20076;-45
2023/12/28 22:49:21;;;;;;;2.05;0.80;;;20.10;48.00;;;;;;10473750;28;20419;-45
2023/12/28 22:54:24;;;;;;;1.40;0.73;;;20.10;48.10;;;;;;10474570;28;20084;-45
2023/12/28 22:59:25;;;;;;;1.35;0.70;;;20.00;48.00;;;;;;10471018;28;20059;-45
2023/12/28 23:04:27;;;;;;;1.92;0.80;;;20.10;47.80;;;;;;10475757;28;20056;-44
2023/12/28 23:09:30;;;;;;;1.80;0.80;;;20.20;47.30;;;;;;10480336;28;20056;-46
2023/12/28 23:14:31;;;;;;;1.58;0.70;;;20.30;47.30;;;;;;10473468;28;20414;-45
2023/12/28 23:19:33;;;;;;;1.05;0.70;;;20.20;47.50;;;;;;10474931;28;20487;-48
2023/12/28 23:24:39;;;;;;;1.30;0.80;;;20.20;47.30;;;;;;10469798;28;20060;-44
2023/12/28 23:29:40;;;;;;;1.92;0.90;;;20.20;47.40;;;;;;10469252;28;20052;-45
2023/12/28 23:34:42;;;;;;;2.17;1.00;;;20.20;47.40;;;;;;10479385;28;20410;-47
2023/12/28 23:39:45;;;;;;;1.70;0.70;;;20.20;47.00;;;;;;10476256;28;20159;-44
2023/12/28 23:44:46;;;;;;;1.60;0.80;;;20.20;47.20;;;;;;10472748;28;20084;-46
2023/12/28 23:49:48;;;;;;;1.75;0.70;;;20.10;47.40;;;;;;10472060;28;20040;-44
2023/12/28 23:54:51;;;;;;;1.30;0.70;;;20.10;47.30;;;;;;10468890;28;20052;-44
2023/12/28 23:59:53;;;;;;;2.05;0.80;;;20.00;47.40;;;;;;10476332;28;20479;-48
